sensor_id;sensor_type;location;lat;lon;timestamp;temperature;humidity
13713;DHT22;6928;50.546;7.120;2023-04-25T00:00:58;8.21;87.03
13713;DHT22;6928;50.546;7.120;2023-04-25T00:03:25;8.12;86.38
13713;DHT22;6928;50.546;7.120;2023-04-25T00:05:51;8.07;86.09
13713;DHT22;6928;50.546;7.120;2023-04-25T00:08:20;8.09;85.95
13713;DHT22;6928;50.546;7.120;2023-04-25T00:10:47;8.16;85.25
13713;DHT22;6928;50.546;7.120;2023-04-25T00:13:14;8.10;85.08
13713;DHT22;6928;50.546;7.120;2023-04-25T00:15:43;8.10;85.16
13713;DHT22;6928;50.546;7.120;2023-04-25T00:18:11;8.07;85.12
13713;DHT22;6928;50.546;7.120;2023-04-25T00:20:38;8.07;85.06
13713;DHT22;6928;50.546;7.120;2023-04-25T00:23:05;7.99;85.38
13713;DHT22;6928;50.546;7.120;2023-04-25T00:25:34;7.95;85.46
13713;DHT22;6928;50.546;7.120;2023-04-25T00:28:01;7.92;85.67
13713;DHT22;6928;50.546;7.120;2023-04-25T00:30:28;7.85;86.21
13713;DHT22;6928;50.546;7.120;2023-04-25T00:32:55;7.79;86.34
13713;DHT22;6928;50.546;7.120;2023-04-25T00:35:22;7.71;86.68
13713;DHT22;6928;50.546;7.120;2023-04-25T00:37:48;7.72;86.75
13713;DHT22;6928;50.546;7.120;2023-04-25T00:40:16;7.69;87.14
13713;DHT22;6928;50.546;7.120;2023-04-25T00:42:45;7.74;86.93
13713;DHT22;6928;50.546;7.120;2023-04-25T00:45:14;7.65;87.03
13713;DHT22;6928;50.546;7.120;2023-04-25T00:47:41;7.61;87.05
13713;DHT22;6928;50.546;7.120;2023-04-25T00:50:09;7.58;86.91
13713;DHT22;6928;50.546;7.120;2023-04-25T00:52:39;7.72;86.60
13713;DHT22;6928;50.546;7.120;2023-04-25T00:55:08;7.66;86.36
13713;DHT22;6928;50.546;7.120;2023-04-25T00:57:35;7.55;86.42
13713;DHT22;6928;50.546;7.120;2023-04-25T01:00:07;7.51;86.47
13713;DHT22;6928;50.546;7.120;2023-04-25T01:02:35;7.55;86.16
13713;DHT22;6928;50.546;7.120;2023-04-25T01:05:03;7.45;86.43
13713;DHT22;6928;50.546;7.120;2023-04-25T02:13:42;6.51;86.86
13713;DHT22;6928;50.546;7.120;2023-04-25T02:16:09;6.44;86.72
13713;DHT22;6928;50.546;7.120;2023-04-25T02:18:35;6.46;86.68
13713;DHT22;6928;50.546;7.120;2023-04-25T02:21:03;6.46;86.50
13713;DHT22;6928;50.546;7.120;2023-04-25T02:23:30;6.52;86.67
13713;DHT22;6928;50.546;7.120;2023-04-25T02:25:57;6.44;86.70
13713;DHT22;6928;50.546;7.120;2023-04-25T02:28:23;6.35;86.65
13713;DHT22;6928;50.546;7.120;2023-04-25T02:30:52;6.30;87.02
13713;DHT22;6928;50.546;7.120;2023-04-25T02:33:19;6.28;86.98
13713;DHT22;6928;50.546;7.120;2023-04-25T02:35:46;6.31;87.23
13713;DHT22;6928;50.546;7.120;2023-04-25T02:38:13;6.51;87.03
13713;DHT22;6928;50.546;7.120;2023-04-25T02:40:40;6.34;86.78
13713;DHT22;6928;50.546;7.120;2023-04-25T02:43:07;6.31;87.03
13713;DHT22;6928;50.546;7.120;2023-04-25T02:45:34;6.45;86.74
13713;DHT22;6928;50.546;7.120;2023-04-25T02:48:03;6.30;87.41
13713;DHT22;6928;50.546;7.120;2023-04-25T02:50:29;6.17;88.09
13713;DHT22;6928;50.546;7.120;2023-04-25T02:52:56;6.21;87.92
13713;DHT22;6928;50.546;7.120;2023-04-25T02:55:23;6.10;88.15
13713;DHT22;6928;50.546;7.120;2023-04-25T02:57:49;6.13;88.20
13713;DHT22;6928;50.546;7.120;2023-04-25T03:00:16;6.14;87.73
13713;DHT22;6928;50.546;7.120;2023-04-25T03:02:43;6.22;87.77
13713;DHT22;6928;50.546;7.120;2023-04-25T03:05:11;6.18;88.14
13713;DHT22;6928;50.546;7.120;2023-04-25T03:07:38;6.18;87.75
13713;DHT22;6928;50.546;7.120;2023-04-25T03:10:07;6.24;87.57
13713;DHT22;6928;50.546;7.120;2023-04-25T03:12:34;6.11;88.10
13713;DHT22;6928;50.546;7.120;2023-04-25T03:15:00;6.14;88.11
13713;DHT22;6928;50.546;7.120;2023-04-25T03:17:27;6.04;88.37
13713;DHT22;6928;50.546;7.120;2023-04-25T03:19:54;6.06;88.43
13713;DHT22;6928;50.546;7.120;2023-04-25T03:22:23;5.83;89.44
13713;DHT22;6928;50.546;7.120;2023-04-25T03:24:50;5.89;88.98
13713;DHT22;6928;50.546;7.120;2023-04-25T03:27:17;6.06;88.76
13713;DHT22;6928;50.546;7.120;2023-04-25T03:29:44;6.07;89.08
13713;DHT22;6928;50.546;7.120;2023-04-25T03:32:10;6.27;88.66
13713;DHT22;6928;50.546;7.120;2023-04-25T03:34:37;6.30;88.61
13713;DHT22;6928;50.546;7.120;2023-04-25T03:37:04;6.42;88.17
13713;DHT22;6928;50.546;7.120;2023-04-25T03:39:32;6.41;88.09
13713;DHT22;6928;50.546;7.120;2023-04-25T03:41:59;6.38;88.14
13713;DHT22;6928;50.546;7.120;2023-04-25T03:44:26;6.41;88.23
13713;DHT22;6928;50.546;7.120;2023-04-25T03:46:53;6.49;88.25
13713;DHT22;6928;50.546;7.120;2023-04-25T03:49:19;6.48;87.97
13713;DHT22;6928;50.546;7.120;2023-04-25T03:51:46;6.46;88.16
13713;DHT22;6928;50.546;7.120;2023-04-25T03:54:13;6.44;88.38
13713;DHT22;6928;50.546;7.120;2023-04-25T03:56:41;6.53;88.21
13713;DHT22;6928;50.546;7.120;2023-04-25T03:59:07;6.45;89.02
13713;DHT22;6928;50.546;7.120;2023-04-25T04:01:34;6.65;88.39
13713;DHT22;6928;50.546;7.120;2023-04-25T04:04:01;6.80;88.11
13713;DHT22;6928;50.546;7.120;2023-04-25T04:06:29;6.65;88.14
13713;DHT22;6928;50.546;7.120;2023-04-25T04:08:56;6.67;87.82
13713;DHT22;6928;50.546;7.120;2023-04-25T04:11:22;6.69;87.50
13713;DHT22;6928;50.546;7.120;2023-04-25T04:13:50;6.68;87.52
13713;DHT22;6928;50.546;7.120;2023-04-25T04:16:17;6.72;87.59
13713;DHT22;6928;50.546;7.120;2023-04-25T04:18:45;6.75;87.53
13713;DHT22;6928;50.546;7.120;2023-04-25T04:21:12;6.65;87.60
13713;DHT22;6928;50.546;7.120;2023-04-25T04:23:39;6.69;87.73
13713;DHT22;6928;50.546;7.120;2023-04-25T04:26:05;6.67;87.35
13713;DHT22;6928;50.546;7.120;2023-04-25T04:28:32;6.67;86.69
13713;DHT22;6928;50.546;7.120;2023-04-25T04:31:00;6.75;86.87
13713;DHT22;6928;50.546;7.120;2023-04-25T04:33:28;6.80;86.55
13713;DHT22;6928;50.546;7.120;2023-04-25T04:35:54;6.88;86.54
13713;DHT22;6928;50.546;7.120;2023-04-25T04:38:21;6.80;86.03
13713;DHT22;6928;50.546;7.120;2023-04-25T04:40:48;6.82;86.17
13713;DHT22;6928;50.546;7.120;2023-04-25T04:43:15;6.82;85.73
13713;DHT22;6928;50.546;7.120;2023-04-25T04:45:44;6.73;86.17
13713;DHT22;6928;50.546;7.120;2023-04-25T04:48:12;6.76;85.91
13713;DHT22;6928;50.546;7.120;2023-04-25T04:50:39;6.79;86.34
13713;DHT22;6928;50.546;7.120;2023-04-25T04:53:07;6.95;86.18
13713;DHT22;6928;50.546;7.120;2023-04-25T04:55:34;6.89;86.29
13713;DHT22;6928;50.546;7.120;2023-04-25T04:58:00;6.93;85.72
13713;DHT22;6928;50.546;7.120;2023-04-25T05:00:27;6.89;85.67
13713;DHT22;6928;50.546;7.120;2023-04-25T05:02:54;6.96;85.54
13713;DHT22;6928;50.546;7.120;2023-04-25T05:05:22;7.13;85.61
13713;DHT22;6928;50.546;7.120;2023-04-25T05:07:49;6.99;85.43
13713;DHT22;6928;50.546;7.120;2023-04-25T05:10:16;6.93;85.39
13713;DHT22;6928;50.546;7.120;2023-04-25T05:12:43;6.92;85.66
13713;DHT22;6928;50.546;7.120;2023-04-25T05:15:10;6.95;85.44
13713;DHT22;6928;50.546;7.120;2023-04-25T05:17:37;6.93;84.98
13713;DHT22;6928;50.546;7.120;2023-04-25T05:20:06;7.01;85.42
13713;DHT22;6928;50.546;7.120;2023-04-25T05:22:35;7.03;84.76
13713;DHT22;6928;50.546;7.120;2023-04-25T05:25:03;7.01;84.85
13713;DHT22;6928;50.546;7.120;2023-04-25T05:27:30;7.00;84.96
13713;DHT22;6928;50.546;7.120;2023-04-25T05:29:56;6.97;84.54
13713;DHT22;6928;50.546;7.120;2023-04-25T05:32:23;7.00;84.77
13713;DHT22;6928;50.546;7.120;2023-04-25T05:34:50;7.23;85.11
13713;DHT22;6928;50.546;7.120;2023-04-25T05:37:17;7.13;85.08
13713;DHT22;6928;50.546;7.120;2023-04-25T05:39:46;7.11;85.60
13713;DHT22;6928;50.546;7.120;2023-04-25T05:42:13;7.06;84.92
13713;DHT22;6928;50.546;7.120;2023-04-25T05:44:40;7.03;85.12
13713;DHT22;6928;50.546;7.120;2023-04-25T05:47:06;6.97;84.77
13713;DHT22;6928;50.546;7.120;2023-04-25T05:49:33;6.97;85.20
13713;DHT22;6928;50.546;7.120;2023-04-25T05:52:00;6.97;85.44
13713;DHT22;6928;50.546;7.120;2023-04-25T05:54:27;6.96;85.42
13713;DHT22;6928;50.546;7.120;2023-04-25T05:56:56;7.01;85.40
13713;DHT22;6928;50.546;7.120;2023-04-25T05:59:23;6.97;85.65
13713;DHT22;6928;50.546;7.120;2023-04-25T06:01:50;7.00;85.12
13713;DHT22;6928;50.546;7.120;2023-04-25T06:04:17;7.03;85.40
13713;DHT22;6928;50.546;7.120;2023-04-25T06:06:44;7.01;85.46
13713;DHT22;6928;50.546;7.120;2023-04-25T06:09:10;7.07;85.35
13713;DHT22;6928;50.546;7.120;2023-04-25T06:11:37;7.13;85.41
13713;DHT22;6928;50.546;7.120;2023-04-25T06:14:05;7.03;85.37
13713;DHT22;6928;50.546;7.120;2023-04-25T06:16:32;6.99;85.42
13713;DHT22;6928;50.546;7.120;2023-04-25T06:18:59;6.97;85.36
13713;DHT22;6928;50.546;7.120;2023-04-25T06:21:26;7.04;85.56
13713;DHT22;6928;50.546;7.120;2023-04-25T06:23:53;6.92;84.80
13713;DHT22;6928;50.546;7.120;2023-04-25T06:26:19;6.96;85.50
13713;DHT22;6928;50.546;7.120;2023-04-25T06:28:46;6.89;85.24
13713;DHT22;6928;50.546;7.120;2023-04-25T06:31:14;6.99;85.14
13713;DHT22;6928;50.546;7.120;2023-04-25T06:33:41;6.96;85.22
13713;DHT22;6928;50.546;7.120;2023-04-25T06:36:07;7.01;85.39
13713;DHT22;6928;50.546;7.120;2023-04-25T06:38:34;7.14;85.16
13713;DHT22;6928;50.546;7.120;2023-04-25T06:41:01;7.16;85.02
13713;DHT22;6928;50.546;7.120;2023-04-25T06:43:28;7.13;84.54
13713;DHT22;6928;50.546;7.120;2023-04-25T06:45:58;7.27;84.98
13713;DHT22;6928;50.546;7.120;2023-04-25T06:48:26;7.31;84.86
13713;DHT22;6928;50.546;7.120;2023-04-25T06:50:54;7.26;84.24
13713;DHT22;6928;50.546;7.120;2023-04-25T06:53:22;7.41;84.28
13713;DHT22;6928;50.546;7.120;2023-04-25T06:55:48;7.52;84.11
13713;DHT22;6928;50.546;7.120;2023-04-25T06:58:15;7.47;84.19
13713;DHT22;6928;50.546;7.120;2023-04-25T07:00:42;7.32;83.07
13713;DHT22;6928;50.546;7.120;2023-04-25T07:03:09;7.48;83.26
13713;DHT22;6928;50.546;7.120;2023-04-25T07:05:37;7.47;82.88
13713;DHT22;6928;50.546;7.120;2023-04-25T07:08:04;7.51;82.28
13713;DHT22;6928;50.546;7.120;2023-04-25T07:10:30;7.44;81.82
13713;DHT22;6928;50.546;7.120;2023-04-25T07:12:57;7.48;82.08
13713;DHT22;6928;50.546;7.120;2023-04-25T07:15:24;7.45;81.73
13713;DHT22;6928;50.546;7.120;2023-04-25T07:17:51;7.48;80.99
13713;DHT22;6928;50.546;7.120;2023-04-25T07:20:18;7.44;80.48
13713;DHT22;6928;50.546;7.120;2023-04-25T07:22:46;7.41;80.64
13713;DHT22;6928;50.546;7.120;2023-04-25T07:25:12;7.48;80.63
13713;DHT22;6928;50.546;7.120;2023-04-25T07:27:39;7.63;80.45
13713;DHT22;6928;50.546;7.120;2023-04-25T07:30:08;7.74;80.26
13713;DHT22;6928;50.546;7.120;2023-04-25T07:32:34;8.00;79.95
13713;DHT22;6928;50.546;7.120;2023-04-25T07:35:01;8.06;79.40
13713;DHT22;6928;50.546;7.120;2023-04-25T07:37:28;7.99;78.39
13713;DHT22;6928;50.546;7.120;2023-04-25T07:39:56;8.09;78.49
13713;DHT22;6928;50.546;7.120;2023-04-25T07:42:23;8.09;77.83
13713;DHT22;6928;50.546;7.120;2023-04-25T07:44:50;8.13;78.03
13713;DHT22;6928;50.546;7.120;2023-04-25T07:47:17;8.17;77.04
13713;DHT22;6928;50.546;7.120;2023-04-25T07:49:45;8.13;76.93
13713;DHT22;6928;50.546;7.120;2023-04-25T07:52:12;7.99;76.58
13713;DHT22;6928;50.546;7.120;2023-04-25T07:54:38;8.05;77.47
13713;DHT22;6928;50.546;7.120;2023-04-25T07:57:07;7.96;76.65
13713;DHT22;6928;50.546;7.120;2023-04-25T07:59:33;8.19;77.00
13713;DHT22;6928;50.546;7.120;2023-04-25T08:02:01;7.90;76.02
13713;DHT22;6928;50.546;7.120;2023-04-25T08:04:28;7.93;75.98
13713;DHT22;6928;50.546;7.120;2023-04-25T08:06:54;8.07;75.48
13713;DHT22;6928;50.546;7.120;2023-04-25T08:09:21;8.12;76.33
13713;DHT22;6928;50.546;7.120;2023-04-25T08:11:48;8.23;76.60
13713;DHT22;6928;50.546;7.120;2023-04-25T08:14:16;8.27;75.90
13713;DHT22;6928;50.546;7.120;2023-04-25T08:16:43;8.37;75.68
13713;DHT22;6928;50.546;7.120;2023-04-25T08:19:10;8.29;75.56
13713;DHT22;6928;50.546;7.120;2023-04-25T08:21:37;8.27;75.43
13713;DHT22;6928;50.546;7.120;2023-04-25T08:24:04;8.41;76.05
13713;DHT22;6928;50.546;7.120;2023-04-25T08:26:31;8.44;75.67
13713;DHT22;6928;50.546;7.120;2023-04-25T08:28:58;8.30;74.49
13713;DHT22;6928;50.546;7.120;2023-04-25T08:31:26;8.12;75.10
13713;DHT22;6928;50.546;7.120;2023-04-25T08:33:53;8.29;75.40
13713;DHT22;6928;50.546;7.120;2023-04-25T08:36:20;8.38;74.82
13713;DHT22;6928;50.546;7.120;2023-04-25T08:38:46;8.45;72.42
13713;DHT22;6928;50.546;7.120;2023-04-25T08:41:13;8.48;72.62
13713;DHT22;6928;50.546;7.120;2023-04-25T08:43:43;8.30;71.62
13713;DHT22;6928;50.546;7.120;2023-04-25T08:46:11;8.58;72.40
13713;DHT22;6928;50.546;7.120;2023-04-25T08:48:40;8.45;72.85
13713;DHT22;6928;50.546;7.120;2023-04-25T08:51:10;8.38;73.06
13713;DHT22;6928;50.546;7.120;2023-04-25T08:53:40;8.47;73.38
13713;DHT22;6928;50.546;7.120;2023-04-25T08:56:10;8.34;72.12
13713;DHT22;6928;50.546;7.120;2023-04-25T08:58:39;8.42;71.72
13713;DHT22;6928;50.546;7.120;2023-04-25T09:01:06;8.23;71.19
13713;DHT22;6928;50.546;7.120;2023-04-25T09:03:33;8.17;69.74
13713;DHT22;6928;50.546;7.120;2023-04-25T09:06:02;8.44;69.76
13713;DHT22;6928;50.546;7.120;2023-04-25T09:08:29;8.57;70.16
13713;DHT22;6928;50.546;7.120;2023-04-25T09:10:56;8.45;69.79
13713;DHT22;6928;50.546;7.120;2023-04-25T09:13:27;8.37;69.06
13713;DHT22;6928;50.546;7.120;2023-04-25T09:15:56;8.24;68.27
13713;DHT22;6928;50.546;7.120;2023-04-25T09:18:24;8.23;68.46
13713;DHT22;6928;50.546;7.120;2023-04-25T09:20:52;8.26;69.86
13713;DHT22;6928;50.546;7.120;2023-04-25T09:23:22;8.31;70.51
13713;DHT22;6928;50.546;7.120;2023-04-25T09:25:51;8.17;70.07
13713;DHT22;6928;50.546;7.120;2023-04-25T09:28:23;8.19;70.17
13713;DHT22;6928;50.546;7.120;2023-04-25T09:30:55;8.55;70.81
13713;DHT22;6928;50.546;7.120;2023-04-25T09:33:28;8.82;70.33
13713;DHT22;6928;50.546;7.120;2023-04-25T09:36:02;8.96;69.73
13713;DHT22;6928;50.546;7.120;2023-04-25T09:38:33;9.06;69.46
13713;DHT22;6928;50.546;7.120;2023-04-25T09:41:07;9.00;68.58
13713;DHT22;6928;50.546;7.120;2023-04-25T09:43:34;8.82;68.58
13713;DHT22;6928;50.546;7.120;2023-04-25T09:46:01;8.95;68.52
13713;DHT22;6928;50.546;7.120;2023-04-25T09:48:28;8.78;69.63
13713;DHT22;6928;50.546;7.120;2023-04-25T09:51:09;8.89;69.55
13713;DHT22;6928;50.546;7.120;2023-04-25T09:53:39;8.98;67.95
13713;DHT22;6928;50.546;7.120;2023-04-25T09:56:07;8.72;67.70
13713;DHT22;6928;50.546;7.120;2023-04-25T09:58:37;8.57;67.28
13713;DHT22;6928;50.546;7.120;2023-04-25T10:01:05;8.72;67.05
13713;DHT22;6928;50.546;7.120;2023-04-25T10:03:34;8.95;66.72
13713;DHT22;6928;50.546;7.120;2023-04-25T10:06:04;8.91;66.32
13713;DHT22;6928;50.546;7.120;2023-04-25T10:08:35;9.13;67.48
13713;DHT22;6928;50.546;7.120;2023-04-25T10:11:05;9.27;66.89
13713;DHT22;6928;50.546;7.120;2023-04-25T10:13:34;9.15;65.32
13713;DHT22;6928;50.546;7.120;2023-04-25T10:16:04;9.06;63.42
13713;DHT22;6928;50.546;7.120;2023-04-25T10:18:32;9.33;63.82
13713;DHT22;6928;50.546;7.120;2023-04-25T10:21:01;9.95;64.25
13713;DHT22;6928;50.546;7.120;2023-04-25T10:23:30;9.52;62.06
13713;DHT22;6928;50.546;7.120;2023-04-25T10:25:58;9.60;63.02
13713;DHT22;6928;50.546;7.120;2023-04-25T10:28:26;9.77;62.56
13713;DHT22;6928;50.546;7.120;2023-04-25T10:30:58;9.71;63.35
13713;DHT22;6928;50.546;7.120;2023-04-25T10:33:35;9.55;62.80
13713;DHT22;6928;50.546;7.120;2023-04-25T10:36:12;9.46;62.62
13713;DHT22;6928;50.546;7.120;2023-04-25T10:38:42;9.52;61.34
13713;DHT22;6928;50.546;7.120;2023-04-25T10:41:10;9.57;61.04
13713;DHT22;6928;50.546;7.120;2023-04-25T10:43:40;9.52;60.63
13713;DHT22;6928;50.546;7.120;2023-04-25T10:46:15;9.65;61.30
13713;DHT22;6928;50.546;7.120;2023-04-25T10:48:47;9.55;60.96
13713;DHT22;6928;50.546;7.120;2023-04-25T10:51:19;9.50;61.81
13713;DHT22;6928;50.546;7.120;2023-04-25T10:53:46;9.57;61.90
13713;DHT22;6928;50.546;7.120;2023-04-25T10:56:17;9.62;61.19
13713;DHT22;6928;50.546;7.120;2023-04-25T10:58:47;9.57;61.28
13713;DHT22;6928;50.546;7.120;2023-04-25T11:01:19;9.75;62.71
13713;DHT22;6928;50.546;7.120;2023-04-25T11:03:46;9.65;62.11
13713;DHT22;6928;50.546;7.120;2023-04-25T11:06:28;9.30;62.81
13713;DHT22;6928;50.546;7.120;2023-04-25T11:08:57;9.60;63.11
13713;DHT22;6928;50.546;7.120;2023-04-25T11:11:26;9.77;62.44
13713;DHT22;6928;50.546;7.120;2023-04-25T11:13:56;9.94;62.33
13713;DHT22;6928;50.546;7.120;2023-04-25T11:16:24;9.89;62.23
13713;DHT22;6928;50.546;7.120;2023-04-25T11:18:51;10.18;62.21
13713;DHT22;6928;50.546;7.120;2023-04-25T11:21:18;10.18;61.31
13713;DHT22;6928;50.546;7.120;2023-04-25T11:23:46;10.20;61.71
13713;DHT22;6928;50.546;7.120;2023-04-25T11:26:12;10.61;59.34
13713;DHT22;6928;50.546;7.120;2023-04-25T11:28:39;10.09;58.59
13713;DHT22;6928;50.546;7.120;2023-04-25T11:31:07;10.15;58.99
13713;DHT22;6928;50.546;7.120;2023-04-25T11:33:35;10.09;60.67
13713;DHT22;6928;50.546;7.120;2023-04-25T11:36:03;10.40;60.33
13713;DHT22;6928;50.546;7.120;2023-04-25T11:38:30;10.20;55.46
13713;DHT22;6928;50.546;7.120;2023-04-25T11:40:57;10.09;55.94
13713;DHT22;6928;50.546;7.120;2023-04-25T11:43:25;10.41;55.40
13713;DHT22;6928;50.546;7.120;2023-04-25T11:45:52;10.56;56.52
13713;DHT22;6928;50.546;7.120;2023-04-25T11:48:20;10.63;56.34
13713;DHT22;6928;50.546;7.120;2023-04-25T11:50:47;11.04;56.15
13713;DHT22;6928;50.546;7.120;2023-04-25T11:53:13;10.91;56.19
13713;DHT22;6928;50.546;7.120;2023-04-25T11:55:40;10.57;55.51
13713;DHT22;6928;50.546;7.120;2023-04-25T11:58:07;10.36;54.72
13713;DHT22;6928;50.546;7.120;2023-04-25T12:00:34;10.84;54.78
13713;DHT22;6928;50.546;7.120;2023-04-25T12:03:01;10.74;54.94
13713;DHT22;6928;50.546;7.120;2023-04-25T12:05:31;10.83;55.99
13713;DHT22;6928;50.546;7.120;2023-04-25T12:08:09;11.04;57.16
13713;DHT22;6928;50.546;7.120;2023-04-25T12:10:37;10.91;57.74
13713;DHT22;6928;50.546;7.120;2023-04-25T12:13:19;10.25;57.17
13713;DHT22;6928;50.546;7.120;2023-04-25T12:15:46;10.23;57.52
13713;DHT22;6928;50.546;7.120;2023-04-25T12:18:13;10.23;58.28
13713;DHT22;6928;50.546;7.120;2023-04-25T12:20:41;10.15;58.78
13713;DHT22;6928;50.546;7.120;2023-04-25T12:23:08;10.12;59.12
13713;DHT22;6928;50.546;7.120;2023-04-25T12:25:38;9.98;59.72
13713;DHT22;6928;50.546;7.120;2023-04-25T12:28:13;9.87;59.08
13713;DHT22;6928;50.546;7.120;2023-04-25T12:30:56;10.01;60.07
13713;DHT22;6928;50.546;7.120;2023-04-25T12:33:25;9.97;61.03
13713;DHT22;6928;50.546;7.120;2023-04-25T12:35:53;9.94;61.92
13713;DHT22;6928;50.546;7.120;2023-04-25T12:38:22;10.02;62.11
13713;DHT22;6928;50.546;7.120;2023-04-25T12:40:49;10.20;62.03
13713;DHT22;6928;50.546;7.120;2023-04-25T12:43:16;10.49;61.52
13713;DHT22;6928;50.546;7.120;2023-04-25T12:45:42;10.39;61.64
13713;DHT22;6928;50.546;7.120;2023-04-25T12:48:09;10.22;60.73
13713;DHT22;6928;50.546;7.120;2023-04-25T12:50:36;10.15;61.34
13713;DHT22;6928;50.546;7.120;2023-04-25T12:53:04;10.18;60.79
13713;DHT22;6928;50.546;7.120;2023-04-25T12:55:31;10.06;60.44
13713;DHT22;6928;50.546;7.120;2023-04-25T12:57:57;9.95;60.78
13713;DHT22;6928;50.546;7.120;2023-04-25T13:00:24;10.01;60.81
13713;DHT22;6928;50.546;7.120;2023-04-25T13:02:52;10.01;61.11
13713;DHT22;6928;50.546;7.120;2023-04-25T13:05:18;9.79;60.58
13713;DHT22;6928;50.546;7.120;2023-04-25T13:07:45;9.79;61.05
13713;DHT22;6928;50.546;7.120;2023-04-25T13:10:13;9.98;61.47
13713;DHT22;6928;50.546;7.120;2023-04-25T13:12:40;10.05;61.38
13713;DHT22;6928;50.546;7.120;2023-04-25T13:15:09;10.02;60.90
13713;DHT22;6928;50.546;7.120;2023-04-25T13:17:36;9.91;60.92
13713;DHT22;6928;50.546;7.120;2023-04-25T13:20:05;9.88;60.74
13713;DHT22;6928;50.546;7.120;2023-04-25T13:22:34;10.01;61.43
13713;DHT22;6928;50.546;7.120;2023-04-25T13:25:02;10.09;61.29
13713;DHT22;6928;50.546;7.120;2023-04-25T13:27:30;10.13;61.65
13713;DHT22;6928;50.546;7.120;2023-04-25T13:29:59;10.03;61.10
13713;DHT22;6928;50.546;7.120;2023-04-25T13:32:26;10.18;61.30
13713;DHT22;6928;50.546;7.120;2023-04-25T13:34:53;10.39;60.88
13713;DHT22;6928;50.546;7.120;2023-04-25T13:37:21;10.20;60.83
13713;DHT22;6928;50.546;7.120;2023-04-25T13:39:49;10.29;60.41
13713;DHT22;6928;50.546;7.120;2023-04-25T13:42:16;10.33;60.72
13713;DHT22;6928;50.546;7.120;2023-04-25T13:44:44;10.30;61.14
13713;DHT22;6928;50.546;7.120;2023-04-25T13:47:11;10.26;60.64
13713;DHT22;6928;50.546;7.120;2023-04-25T13:49:38;10.25;60.00
13713;DHT22;6928;50.546;7.120;2023-04-25T13:52:04;10.16;59.66
13713;DHT22;6928;50.546;7.120;2023-04-25T13:54:31;10.12;60.87
13713;DHT22;6928;50.546;7.120;2023-04-25T13:56:58;10.28;60.22
13713;DHT22;6928;50.546;7.120;2023-04-25T13:59:26;10.33;59.43
13713;DHT22;6928;50.546;7.120;2023-04-25T14:01:54;10.46;59.37
13713;DHT22;6928;50.546;7.120;2023-04-25T14:04:20;10.61;59.80
13713;DHT22;6928;50.546;7.120;2023-04-25T14:06:47;10.50;59.14
13713;DHT22;6928;50.546;7.120;2023-04-25T14:09:14;10.36;59.47
13713;DHT22;6928;50.546;7.120;2023-04-25T14:11:41;10.34;59.66
13713;DHT22;6928;50.546;7.120;2023-04-25T14:14:07;10.46;60.29
13713;DHT22;6928;50.546;7.120;2023-04-25T14:16:34;10.97;60.37
13713;DHT22;6928;50.546;7.120;2023-04-25T14:19:02;10.88;59.03
13713;DHT22;6928;50.546;7.120;2023-04-25T14:21:29;10.43;57.85
13713;DHT22;6928;50.546;7.120;2023-04-25T14:23:57;10.23;58.52
13713;DHT22;6928;50.546;7.120;2023-04-25T14:26:24;10.19;59.16
13713;DHT22;6928;50.546;7.120;2023-04-25T14:28:51;9.99;59.54
13713;DHT22;6928;50.546;7.120;2023-04-25T14:31:18;10.01;59.92
13713;DHT22;6928;50.546;7.120;2023-04-25T14:33:45;9.92;60.22
13713;DHT22;6928;50.546;7.120;2023-04-25T14:36:13;9.87;60.94
13713;DHT22;6928;50.546;7.120;2023-04-25T14:38:40;9.89;60.83
13713;DHT22;6928;50.546;7.120;2023-04-25T14:41:07;9.94;61.83
13713;DHT22;6928;50.546;7.120;2023-04-25T14:43:34;9.98;61.08
13713;DHT22;6928;50.546;7.120;2023-04-25T14:46:00;9.85;60.60
13713;DHT22;6928;50.546;7.120;2023-04-25T14:48:27;9.77;60.72
13713;DHT22;6928;50.546;7.120;2023-04-25T14:50:55;9.87;61.69
13713;DHT22;6928;50.546;7.120;2023-04-25T14:53:23;9.99;61.64
13713;DHT22;6928;50.546;7.120;2023-04-25T14:55:50;10.06;61.24
13713;DHT22;6928;50.546;7.120;2023-04-25T14:58:16;10.13;60.07
13713;DHT22;6928;50.546;7.120;2023-04-25T15:00:43;10.29;60.28
13713;DHT22;6928;50.546;7.120;2023-04-25T15:03:10;10.81;61.31
13713;DHT22;6928;50.546;7.120;2023-04-25T15:05:38;10.51;58.93
13713;DHT22;6928;50.546;7.120;2023-04-25T15:08:05;10.39;59.75
13713;DHT22;6928;50.546;7.120;2023-04-25T15:10:33;10.39;57.19
13713;DHT22;6928;50.546;7.120;2023-04-25T15:13:00;10.37;57.86
13713;DHT22;6928;50.546;7.120;2023-04-25T15:15:27;10.23;56.77
13713;DHT22;6928;50.546;7.120;2023-04-25T15:17:55;10.32;56.70
13713;DHT22;6928;50.546;7.120;2023-04-25T15:20:23;10.39;56.71
13713;DHT22;6928;50.546;7.120;2023-04-25T15:22:50;10.36;55.65
13713;DHT22;6928;50.546;7.120;2023-04-25T15:25:17;10.57;55.45
13713;DHT22;6928;50.546;7.120;2023-04-25T15:27:45;10.74;56.02
13713;DHT22;6928;50.546;7.120;2023-04-25T15:30:15;10.61;54.71
13713;DHT22;6928;50.546;7.120;2023-04-25T15:32:42;10.73;55.12
13713;DHT22;6928;50.546;7.120;2023-04-25T15:35:09;10.94;55.76
13713;DHT22;6928;50.546;7.120;2023-04-25T15:37:37;10.68;55.63
13713;DHT22;6928;50.546;7.120;2023-04-25T15:40:07;10.66;56.62
13713;DHT22;6928;50.546;7.120;2023-04-25T15:42:35;10.39;57.20
13713;DHT22;6928;50.546;7.120;2023-04-25T15:45:05;10.08;55.62
13713;DHT22;6928;50.546;7.120;2023-04-25T15:47:32;10.03;54.36
13713;DHT22;6928;50.546;7.120;2023-04-25T15:49:59;10.10;54.89
13713;DHT22;6928;50.546;7.120;2023-04-25T15:52:27;10.03;54.68
13713;DHT22;6928;50.546;7.120;2023-04-25T15:54:54;10.02;55.70
13713;DHT22;6928;50.546;7.120;2023-04-25T15:57:21;10.09;56.01
13713;DHT22;6928;50.546;7.120;2023-04-25T15:59:48;10.19;56.81
13713;DHT22;6928;50.546;7.120;2023-04-25T16:02:17;10.25;56.71
13713;DHT22;6928;50.546;7.120;2023-04-25T16:04:44;10.09;56.49
13713;DHT22;6928;50.546;7.120;2023-04-25T16:07:11;10.08;56.82
13713;DHT22;6928;50.546;7.120;2023-04-25T16:09:38;10.22;56.77
13713;DHT22;6928;50.546;7.120;2023-04-25T16:12:07;10.12;57.26
13713;DHT22;6928;50.546;7.120;2023-04-25T16:14:34;10.05;57.35
13713;DHT22;6928;50.546;7.120;2023-04-25T16:17:00;10.22;57.91
13713;DHT22;6928;50.546;7.120;2023-04-25T16:19:31;10.09;57.93
13713;DHT22;6928;50.546;7.120;2023-04-25T16:21:58;10.15;58.51
13713;DHT22;6928;50.546;7.120;2023-04-25T16:24:26;10.10;59.19
13713;DHT22;6928;50.546;7.120;2023-04-25T16:26:52;9.94;59.81
13713;DHT22;6928;50.546;7.120;2023-04-25T16:29:20;9.85;60.40
13713;DHT22;6928;50.546;7.120;2023-04-25T16:31:47;9.97;59.99
13713;DHT22;6928;50.546;7.120;2023-04-25T16:34:14;10.02;59.64
13713;DHT22;6928;50.546;7.120;2023-04-25T16:36:45;10.10;60.30
13713;DHT22;6928;50.546;7.120;2023-04-25T16:39:11;10.05;60.71
13713;DHT22;6928;50.546;7.120;2023-04-25T16:41:38;10.09;61.24
13713;DHT22;6928;50.546;7.120;2023-04-25T16:44:05;10.02;60.58
13713;DHT22;6928;50.546;7.120;2023-04-25T16:46:32;10.12;60.77
13713;DHT22;6928;50.546;7.120;2023-04-25T16:49:00;10.28;60.63
13713;DHT22;6928;50.546;7.120;2023-04-25T16:51:26;10.39;60.38
13713;DHT22;6928;50.546;7.120;2023-04-25T16:53:55;10.39;60.29
13713;DHT22;6928;50.546;7.120;2023-04-25T16:56:21;10.30;59.97
13713;DHT22;6928;50.546;7.120;2023-04-25T16:58:49;10.44;58.61
13713;DHT22;6928;50.546;7.120;2023-04-25T17:01:15;10.29;57.02
13713;DHT22;6928;50.546;7.120;2023-04-25T17:03:44;10.30;57.32
13713;DHT22;6928;50.546;7.120;2023-04-25T17:06:11;10.18;57.09